sensor_id;sensor_type;location;lat;lon;timestamp;P1;P2;P0
49454;PMS5003;69710;64.656;21.218;2023-07-13T00:00:04;14;13;
49454;PMS5003;69710;64.656;21.218;2023-07-13T00:02:32;16;15;
49454;PMS5003;69710;64.656;21.218;2023-07-13T00:04:59;15;15;
49454;PMS5003;69710;64.656;21.218;2023-07-13T00:07:28;15;14;
49454;PMS5003;69710;64.656;21.218;2023-07-13T00:10:01;15;15;
49454;PMS5003;69710;64.656;21.218;2023-07-13T00:12:29;16;16;
49454;PMS5003;69710;64.656;21.218;2023-07-13T00:14:59;16;16;
49454;PMS5003;69710;64.656;21.218;2023-07-13T00:17:29;14;14;
49454;PMS5003;69710;64.656;21.218;2023-07-13T00:19:58;14;14;
49454;PMS5003;69710;64.656;21.218;2023-07-13T00:22:25;16;16;
49454;PMS5003;69710;64.656;21.218;2023-07-13T00:24:54;15;15;
49454;PMS5003;69710;64.656;21.218;2023-07-13T00:27:22;16;14;
49454;PMS5003;69710;64.656;21.218;2023-07-13T00:29:51;14;13;
49454;PMS5003;69710;64.656;21.218;2023-07-13T00:32:19;17;16;
49454;PMS5003;69710;64.656;21.218;2023-07-13T00:34:46;12;12;
49454;PMS5003;69710;64.656;21.218;2023-07-13T00:37:14;17;15;
49454;PMS5003;69710;64.656;21.218;2023-07-13T00:39:42;15;15;
49454;PMS5003;69710;64.656;21.218;2023-07-13T00:42:09;15;15;
49454;PMS5003;69710;64.656;21.218;2023-07-13T00:44:37;17;16;
49454;PMS5003;69710;64.656;21.218;2023-07-13T00:47:05;18;18;
49454;PMS5003;69710;64.656;21.218;2023-07-13T00:49:34;15;14;
49454;PMS5003;69710;64.656;21.218;2023-07-13T00:52:04;16;15;
49454;PMS5003;69710;64.656;21.218;2023-07-13T00:54:36;16;15;
49454;PMS5003;69710;64.656;21.218;2023-07-13T00:57:08;17;17;
49454;PMS5003;69710;64.656;21.218;2023-07-13T00:59:39;16;16;
49454;PMS5003;69710;64.656;21.218;2023-07-13T01:02:09;16;15;
49454;PMS5003;69710;64.656;21.218;2023-07-13T01:04:38;17;17;
49454;PMS5003;69710;64.656;21.218;2023-07-13T01:07:06;14;14;
49454;PMS5003;69710;64.656;21.218;2023-07-13T01:09:34;14;14;
49454;PMS5003;69710;64.656;21.218;2023-07-13T01:12:02;14;14;
49454;PMS5003;69710;64.656;21.218;2023-07-13T01:14:30;17;17;
49454;PMS5003;69710;64.656;21.218;2023-07-13T01:16:58;19;19;
49454;PMS5003;69710;64.656;21.218;2023-07-13T01:19:29;16;16;
49454;PMS5003;69710;64.656;21.218;2023-07-13T01:22:02;17;17;
49454;PMS5003;69710;64.656;21.218;2023-07-13T01:24:31;17;16;
49454;PMS5003;69710;64.656;21.218;2023-07-13T01:26:58;16;16;
49454;PMS5003;69710;64.656;21.218;2023-07-13T01:29:26;15;15;
49454;PMS5003;69710;64.656;21.218;2023-07-13T01:31:53;18;18;
49454;PMS5003;69710;64.656;21.218;2023-07-13T01:34:20;16;14;
49454;PMS5003;69710;64.656;21.218;2023-07-13T01:36:47;17;17;
49454;PMS5003;69710;64.656;21.218;2023-07-13T01:39:15;18;18;
49454;PMS5003;69710;64.656;21.218;2023-07-13T01:41:43;17;17;
49454;PMS5003;69710;64.656;21.218;2023-07-13T01:44:12;17;17;
49454;PMS5003;69710;64.656;21.218;2023-07-13T01:46:39;14;14;
49454;PMS5003;69710;64.656;21.218;2023-07-13T01:49:07;17;17;
49454;PMS5003;69710;64.656;21.218;2023-07-13T01:51:35;18;17;
49454;PMS5003;69710;64.656;21.218;2023-07-13T01:54:03;17;17;
49454;PMS5003;69710;64.656;21.218;2023-07-13T01:56:31;15;15;
49454;PMS5003;69710;64.656;21.218;2023-07-13T01:58:59;15;15;
49454;PMS5003;69710;64.656;21.218;2023-07-13T02:01:27;23;21;
49454;PMS5003;69710;64.656;21.218;2023-07-13T02:03:55;19;18;
49454;PMS5003;69710;64.656;21.218;2023-07-13T02:06:23;17;17;
49454;PMS5003;69710;64.656;21.218;2023-07-13T02:08:51;16;16;
49454;PMS5003;69710;64.656;21.218;2023-07-13T02:11:18;22;22;
49454;PMS5003;69710;64.656;21.218;2023-07-13T02:13:46;19;18;
49454;PMS5003;69710;64.656;21.218;2023-07-13T02:16:14;17;16;
49454;PMS5003;69710;64.656;21.218;2023-07-13T02:18:42;18;18;
49454;PMS5003;69710;64.656;21.218;2023-07-13T02:21:10;17;17;
49454;PMS5003;69710;64.656;21.218;2023-07-13T02:23:37;19;19;
49454;PMS5003;69710;64.656;21.218;2023-07-13T02:26:05;18;18;
49454;PMS5003;69710;64.656;21.218;2023-07-13T02:28:33;19;19;
49454;PMS5003;69710;64.656;21.218;2023-07-13T02:31:04;16;16;
49454;PMS5003;69710;64.656;21.218;2023-07-13T02:33:32;17;17;
49454;PMS5003;69710;64.656;21.218;2023-07-13T02:35:59;16;15;
49454;PMS5003;69710;64.656;21.218;2023-07-13T02:38:27;17;17;
49454;PMS5003;69710;64.656;21.218;2023-07-13T02:40:55;15;15;
49454;PMS5003;69710;64.656;21.218;2023-07-13T02:43:23;16;16;
49454;PMS5003;69710;64.656;21.218;2023-07-13T02:45:51;17;17;
49454;PMS5003;69710;64.656;21.218;2023-07-13T02:48:18;18;17;
49454;PMS5003;69710;64.656;21.218;2023-07-13T02:50:45;17;17;
49454;PMS5003;69710;64.656;21.218;2023-07-13T02:53:14;20;18;
49454;PMS5003;69710;64.656;21.218;2023-07-13T02:55:41;19;18;
49454;PMS5003;69710;64.656;21.218;2023-07-13T02:58:09;14;14;
49454;PMS5003;69710;64.656;21.218;2023-07-13T03:00:38;19;19;
49454;PMS5003;69710;64.656;21.218;2023-07-13T03:03:06;17;16;
49454;PMS5003;69710;64.656;21.218;2023-07-13T03:05:36;17;17;
49454;PMS5003;69710;64.656;21.218;2023-07-13T03:08:05;16;16;
49454;PMS5003;69710;64.656;21.218;2023-07-13T03:10:32;14;14;
49454;PMS5003;69710;64.656;21.218;2023-07-13T03:13:00;15;15;
49454;PMS5003;69710;64.656;21.218;2023-07-13T03:15:28;15;15;
49454;PMS5003;69710;64.656;21.218;2023-07-13T03:17:56;14;14;
49454;PMS5003;69710;64.656;21.218;2023-07-13T03:20:24;15;15;
49454;PMS5003;69710;64.656;21.218;2023-07-13T03:22:52;14;14;
49454;PMS5003;69710;64.656;21.218;2023-07-13T03:25:20;15;15;
49454;PMS5003;69710;64.656;21.218;2023-07-13T03:27:47;14;14;
49454;PMS5003;69710;64.656;21.218;2023-07-13T03:30:15;19;19;
49454;PMS5003;69710;64.656;21.218;2023-07-13T03:32:43;15;15;
49454;PMS5003;69710;64.656;21.218;2023-07-13T03:35:11;18;18;
49454;PMS5003;69710;64.656;21.218;2023-07-13T03:37:39;17;17;
49454;PMS5003;69710;64.656;21.218;2023-07-13T03:40:07;18;17;
49454;PMS5003;69710;64.656;21.218;2023-07-13T03:42:35;16;16;
49454;PMS5003;69710;64.656;21.218;2023-07-13T03:45:04;14;14;
49454;PMS5003;69710;64.656;21.218;2023-07-13T03:47:32;16;16;
49454;PMS5003;69710;64.656;21.218;2023-07-13T03:50:00;14;14;
49454;PMS5003;69710;64.656;21.218;2023-07-13T03:52:27;21;20;
49454;PMS5003;69710;64.656;21.218;2023-07-13T03:54:55;15;15;
49454;PMS5003;69710;64.656;21.218;2023-07-13T03:57:23;17;17;
49454;PMS5003;69710;64.656;21.218;2023-07-13T03:59:51;16;16;
49454;PMS5003;69710;64.656;21.218;2023-07-13T04:02:19;14;14;
49454;PMS5003;69710;64.656;21.218;2023-07-13T04:04:47;17;16;
49454;PMS5003;69710;64.656;21.218;2023-07-13T04:07:14;19;18;
49454;PMS5003;69710;64.656;21.218;2023-07-13T04:09:42;21;20;
49454;PMS5003;69710;64.656;21.218;2023-07-13T04:12:09;15;15;
49454;PMS5003;69710;64.656;21.218;2023-07-13T04:14:37;20;20;
49454;PMS5003;69710;64.656;21.218;2023-07-13T04:17:05;19;19;
49454;PMS5003;69710;64.656;21.218;2023-07-13T04:19:33;21;20;
49454;PMS5003;69710;64.656;21.218;2023-07-13T04:22:00;16;15;
49454;PMS5003;69710;64.656;21.218;2023-07-13T04:24:27;20;20;
49454;PMS5003;69710;64.656;21.218;2023-07-13T04:26:55;22;22;
49454;PMS5003;69710;64.656;21.218;2023-07-13T04:29:23;22;21;
49454;PMS5003;69710;64.656;21.218;2023-07-13T04:31:51;19;19;
49454;PMS5003;69710;64.656;21.218;2023-07-13T04:34:19;19;19;
49454;PMS5003;69710;64.656;21.218;2023-07-13T04:36:46;21;21;
49454;PMS5003;69710;64.656;21.218;2023-07-13T04:39:14;20;20;
49454;PMS5003;69710;64.656;21.218;2023-07-13T04:41:42;21;21;
49454;PMS5003;69710;64.656;21.218;2023-07-13T04:44:10;21;21;
49454;PMS5003;69710;64.656;21.218;2023-07-13T04:46:37;23;22;
49454;PMS5003;69710;64.656;21.218;2023-07-13T04:49:05;22;22;
49454;PMS5003;69710;64.656;21.218;2023-07-13T04:51:32;23;22;
49454;PMS5003;69710;64.656;21.218;2023-07-13T04:53:59;21;21;
49454;PMS5003;69710;64.656;21.218;2023-07-13T04:56:27;22;20;
49454;PMS5003;69710;64.656;21.218;2023-07-13T04:58:54;21;21;
49454;PMS5003;69710;64.656;21.218;2023-07-13T05:01:21;23;21;
49454;PMS5003;69710;64.656;21.218;2023-07-13T05:03:50;20;20;
49454;PMS5003;69710;64.656;21.218;2023-07-13T05:06:17;21;21;
49454;PMS5003;69710;64.656;21.218;2023-07-13T05:08:45;22;21;
49454;PMS5003;69710;64.656;21.218;2023-07-13T05:11:13;22;22;
49454;PMS5003;69710;64.656;21.218;2023-07-13T05:13:41;24;22;
49454;PMS5003;69710;64.656;21.218;2023-07-13T05:16:09;21;20;
49454;PMS5003;69710;64.656;21.218;2023-07-13T05:18:37;21;21;
49454;PMS5003;69710;64.656;21.218;2023-07-13T05:21:05;23;22;
49454;PMS5003;69710;64.656;21.218;2023-07-13T05:23:35;20;20;
49454;PMS5003;69710;64.656;21.218;2023-07-13T05:26:03;20;20;
49454;PMS5003;69710;64.656;21.218;2023-07-13T05:28:31;21;20;
49454;PMS5003;69710;64.656;21.218;2023-07-13T05:30:59;24;22;
49454;PMS5003;69710;64.656;21.218;2023-07-13T05:33:27;21;21;
49454;PMS5003;69710;64.656;21.218;2023-07-13T05:35:55;22;22;
49454;PMS5003;69710;64.656;21.218;2023-07-13T05:38:23;19;19;
49454;PMS5003;69710;64.656;21.218;2023-07-13T05:40:52;19;19;
49454;PMS5003;69710;64.656;21.218;2023-07-13T05:43:21;20;19;
49454;PMS5003;69710;64.656;21.218;2023-07-13T05:45:50;22;21;
49454;PMS5003;69710;64.656;21.218;2023-07-13T05:48:19;21;21;
49454;PMS5003;69710;64.656;21.218;2023-07-13T05:50:47;19;19;
49454;PMS5003;69710;64.656;21.218;2023-07-13T05:53:15;21;21;
49454;PMS5003;69710;64.656;21.218;2023-07-13T05:55:43;20;20;
49454;PMS5003;69710;64.656;21.218;2023-07-13T05:58:11;20;20;
49454;PMS5003;69710;64.656;21.218;2023-07-13T06:00:40;21;21;
49454;PMS5003;69710;64.656;21.218;2023-07-13T06:03:08;21;21;
49454;PMS5003;69710;64.656;21.218;2023-07-13T06:05:36;18;18;
49454;PMS5003;69710;64.656;21.218;2023-07-13T06:08:05;20;20;
49454;PMS5003;69710;64.656;21.218;2023-07-13T06:10:34;23;23;
49454;PMS5003;69710;64.656;21.218;2023-07-13T06:13:02;20;20;
49454;PMS5003;69710;64.656;21.218;2023-07-13T06:15:30;20;20;
49454;PMS5003;69710;64.656;21.218;2023-07-13T06:17:58;23;23;
49454;PMS5003;69710;64.656;21.218;2023-07-13T06:20:26;21;21;
49454;PMS5003;69710;64.656;21.218;2023-07-13T06:22:53;20;20;
49454;PMS5003;69710;64.656;21.218;2023-07-13T06:25:20;22;22;
49454;PMS5003;69710;64.656;21.218;2023-07-13T06:27:48;22;22;
49454;PMS5003;69710;64.656;21.218;2023-07-13T06:30:16;20;20;
49454;PMS5003;69710;64.656;21.218;2023-07-13T06:32:44;18;17;
49454;PMS5003;69710;64.656;21.218;2023-07-13T06:35:11;25;23;
49454;PMS5003;69710;64.656;21.218;2023-07-13T06:37:39;22;22;
49454;PMS5003;69710;64.656;21.218;2023-07-13T06:40:07;28;27;
49454;PMS5003;69710;64.656;21.218;2023-07-13T06:42:35;22;22;
49454;PMS5003;69710;64.656;21.218;2023-07-13T06:45:04;21;20;
49454;PMS5003;69710;64.656;21.218;2023-07-13T06:47:32;27;26;
49454;PMS5003;69710;64.656;21.218;2023-07-13T06:50:00;29;28;
49454;PMS5003;69710;64.656;21.218;2023-07-13T06:52:27;24;23;
49454;PMS5003;69710;64.656;21.218;2023-07-13T06:54:55;27;26;
49454;PMS5003;69710;64.656;21.218;2023-07-13T06:57:22;24;23;
49454;PMS5003;69710;64.656;21.218;2023-07-13T06:59:50;22;21;
49454;PMS5003;69710;64.656;21.218;2023-07-13T07:02:17;22;21;
49454;PMS5003;69710;64.656;21.218;2023-07-13T07:04:45;20;20;
49454;PMS5003;69710;64.656;21.218;2023-07-13T07:07:13;22;22;
49454;PMS5003;69710;64.656;21.218;2023-07-13T07:09:41;19;18;
49454;PMS5003;69710;64.656;21.218;2023-07-13T07:12:09;18;18;
49454;PMS5003;69710;64.656;21.218;2023-07-13T07:14:37;20;20;
49454;PMS5003;69710;64.656;21.218;2023-07-13T07:17:05;19;18;
49454;PMS5003;69710;64.656;21.218;2023-07-13T07:19:34;16;15;
49454;PMS5003;69710;64.656;21.218;2023-07-13T07:22:03;19;19;
49454;PMS5003;69710;64.656;21.218;2023-07-13T07:24:31;23;23;
49454;PMS5003;69710;64.656;21.218;2023-07-13T07:26:59;22;21;
49454;PMS5003;69710;64.656;21.218;2023-07-13T07:29:27;18;18;
49454;PMS5003;69710;64.656;21.218;2023-07-13T07:31:55;20;20;
49454;PMS5003;69710;64.656;21.218;2023-07-13T07:34:23;20;18;
49454;PMS5003;69710;64.656;21.218;2023-07-13T07:36:51;21;21;
49454;PMS5003;69710;64.656;21.218;2023-07-13T07:39:20;19;19;
49454;PMS5003;69710;64.656;21.218;2023-07-13T07:41:48;18;18;
49454;PMS5003;69710;64.656;21.218;2023-07-13T07:44:16;21;21;
49454;PMS5003;69710;64.656;21.218;2023-07-13T07:46:44;19;19;
49454;PMS5003;69710;64.656;21.218;2023-07-13T07:49:11;20;20;
49454;PMS5003;69710;64.656;21.218;2023-07-13T07:51:39;21;20;
49454;PMS5003;69710;64.656;21.218;2023-07-13T07:54:07;20;20;
49454;PMS5003;69710;64.656;21.218;2023-07-13T07:56:35;22;21;
49454;PMS5003;69710;64.656;21.218;2023-07-13T07:59:03;18;18;
49454;PMS5003;69710;64.656;21.218;2023-07-13T08:01:31;19;19;
49454;PMS5003;69710;64.656;21.218;2023-07-13T08:03:58;20;19;
49454;PMS5003;69710;64.656;21.218;2023-07-13T08:06:26;19;19;
49454;PMS5003;69710;64.656;21.218;2023-07-13T08:08:53;20;20;
49454;PMS5003;69710;64.656;21.218;2023-07-13T08:11:22;21;21;
49454;PMS5003;69710;64.656;21.218;2023-07-13T08:13:49;18;17;
49454;PMS5003;69710;64.656;21.218;2023-07-13T08:16:17;21;21;
49454;PMS5003;69710;64.656;21.218;2023-07-13T08:18:45;22;21;
49454;PMS5003;69710;64.656;21.218;2023-07-13T08:21:13;24;23;
49454;PMS5003;69710;64.656;21.218;2023-07-13T08:23:40;24;24;
49454;PMS5003;69710;64.656;21.218;2023-07-13T08:26:09;19;19;
49454;PMS5003;69710;64.656;21.218;2023-07-13T08:28:36;26;26;
49454;PMS5003;69710;64.656;21.218;2023-07-13T08:31:04;17;17;
49454;PMS5003;69710;64.656;21.218;2023-07-13T08:33:34;25;25;
49454;PMS5003;69710;64.656;21.218;2023-07-13T08:36:03;31;25;
49454;PMS5003;69710;64.656;21.218;2023-07-13T08:38:31;30;26;
49454;PMS5003;69710;64.656;21.218;2023-07-13T08:41:00;27;26;
49454;PMS5003;69710;64.656;21.218;2023-07-13T08:43:37;29;26;
49454;PMS5003;69710;64.656;21.218;2023-07-13T08:46:08;32;32;
49454;PMS5003;69710;64.656;21.218;2023-07-13T08:48:43;36;36;
49454;PMS5003;69710;64.656;21.218;2023-07-13T08:51:20;13;13;
49454;PMS5003;69710;64.656;21.218;2023-07-13T08:53:57;20;20;
49454;PMS5003;69710;64.656;21.218;2023-07-13T08:56:29;16;15;
49454;PMS5003;69710;64.656;21.218;2023-07-13T08:58:58;16;15;
49454;PMS5003;69710;64.656;21.218;2023-07-13T09:01:31;16;15;
49454;PMS5003;69710;64.656;21.218;2023-07-13T09:04:11;14;14;
49454;PMS5003;69710;64.656;21.218;2023-07-13T09:06:46;13;12;
49454;PMS5003;69710;64.656;21.218;2023-07-13T09:09:26;13;13;
49454;PMS5003;69710;64.656;21.218;2023-07-13T09:12:04;18;18;
49454;PMS5003;69710;64.656;21.218;2023-07-13T09:14:41;20;19;
49454;PMS5003;69710;64.656;21.218;2023-07-13T09:17:13;13;13;
49454;PMS5003;69710;64.656;21.218;2023-07-13T09:19:46;15;15;
49454;PMS5003;69710;64.656;21.218;2023-07-13T09:22:20;13;13;
49454;PMS5003;69710;64.656;21.218;2023-07-13T09:24:53;13;12;
49454;PMS5003;69710;64.656;21.218;2023-07-13T09:27:30;15;15;
49454;PMS5003;69710;64.656;21.218;2023-07-13T09:30:04;12;12;
49454;PMS5003;69710;64.656;21.218;2023-07-13T09:32:50;13;13;
49454;PMS5003;69710;64.656;21.218;2023-07-13T09:35:20;15;14;
49454;PMS5003;69710;64.656;21.218;2023-07-13T09:37:51;13;12;
49454;PMS5003;69710;64.656;21.218;2023-07-13T09:40:24;13;13;
49454;PMS5003;69710;64.656;21.218;2023-07-13T09:43:02;13;13;
49454;PMS5003;69710;64.656;21.218;2023-07-13T09:45:32;11;10;
49454;PMS5003;69710;64.656;21.218;2023-07-13T09:48:04;12;11;
49454;PMS5003;69710;64.656;21.218;2023-07-13T09:50:33;11;11;
49454;PMS5003;69710;64.656;21.218;2023-07-13T09:53:01;13;13;
49454;PMS5003;69710;64.656;21.218;2023-07-13T09:55:30;14;14;
49454;PMS5003;69710;64.656;21.218;2023-07-13T09:58:04;14;12;
49454;PMS5003;69710;64.656;21.218;2023-07-13T10:00:36;13;11;
49454;PMS5003;69710;64.656;21.218;2023-07-13T10:03:05;11;11;
49454;PMS5003;69710;64.656;21.218;2023-07-13T10:05:43;15;15;
49454;PMS5003;69710;64.656;21.218;2023-07-13T10:08:17;12;12;
49454;PMS5003;69710;64.656;21.218;2023-07-13T10:10:49;14;14;
49454;PMS5003;69710;64.656;21.218;2023-07-13T10:13:37;13;12;
49454;PMS5003;69710;64.656;21.218;2023-07-13T10:16:09;14;14;
49454;PMS5003;69710;64.656;21.218;2023-07-13T10:18:39;17;15;
49454;PMS5003;69710;64.656;21.218;2023-07-13T10:21:10;12;12;
49454;PMS5003;69710;64.656;21.218;2023-07-13T10:23:41;13;11;
49454;PMS5003;69710;64.656;21.218;2023-07-13T10:26:27;13;12;
49454;PMS5003;69710;64.656;21.218;2023-07-13T10:29:00;12;12;
49454;PMS5003;69710;64.656;21.218;2023-07-13T10:31:32;16;14;
49454;PMS5003;69710;64.656;21.218;2023-07-13T10:34:01;15;14;
49454;PMS5003;69710;64.656;21.218;2023-07-13T10:36:31;16;16;
49454;PMS5003;69710;64.656;21.218;2023-07-13T10:39:04;14;14;
49454;PMS5003;69710;64.656;21.218;2023-07-13T10:41:35;18;18;
49454;PMS5003;69710;64.656;21.218;2023-07-13T10:44:11;19;17;
49454;PMS5003;69710;64.656;21.218;2023-07-13T10:46:48;16;16;
49454;PMS5003;69710;64.656;21.218;2023-07-13T10:49:16;18;18;
49454;PMS5003;69710;64.656;21.218;2023-07-13T10:51:45;15;15;
49454;PMS5003;69710;64.656;21.218;2023-07-13T10:54:16;19;18;
49454;PMS5003;69710;64.656;21.218;2023-07-13T10:56:46;18;18;
49454;PMS5003;69710;64.656;21.218;2023-07-13T10:59:16;19;18;
49454;PMS5003;69710;64.656;21.218;2023-07-13T11:01:50;18;18;
49454;PMS5003;69710;64.656;21.218;2023-07-13T11:04:21;20;19;
49454;PMS5003;69710;64.656;21.218;2023-07-13T11:06:52;14;14;
49454;PMS5003;69710;64.656;21.218;2023-07-13T11:09:33;19;18;
49454;PMS5003;69710;64.656;21.218;2023-07-13T11:12:09;17;16;
49454;PMS5003;69710;64.656;21.218;2023-07-13T11:15:02;18;18;
49454;PMS5003;69710;64.656;21.218;2023-07-13T11:17:35;16;16;
49454;PMS5003;69710;64.656;21.218;2023-07-13T11:20:09;18;18;
49454;PMS5003;69710;64.656;21.218;2023-07-13T11:22:48;18;17;
49454;PMS5003;69710;64.656;21.218;2023-07-13T11:25:21;14;14;
49454;PMS5003;69710;64.656;21.218;2023-07-13T11:28:04;15;15;
49454;PMS5003;69710;64.656;21.218;2023-07-13T11:30:43;13;13;
49454;PMS5003;69710;64.656;21.218;2023-07-13T11:33:16;14;14;
49454;PMS5003;69710;64.656;21.218;2023-07-13T11:35:48;13;13;
49454;PMS5003;69710;64.656;21.218;2023-07-13T11:38:20;15;15;
49454;PMS5003;69710;64.656;21.218;2023-07-13T11:40:51;16;15;
49454;PMS5003;69710;64.656;21.218;2023-07-13T11:43:21;14;11;
49454;PMS5003;69710;64.656;21.218;2023-07-13T11:45:50;12;12;
49454;PMS5003;69710;64.656;21.218;2023-07-13T11:48:20;11;10;
49454;PMS5003;69710;64.656;21.218;2023-07-13T11:50:51;8;8;
49454;PMS5003;69710;64.656;21.218;2023-07-13T11:53:25;9;9;
49454;PMS5003;69710;64.656;21.218;2023-07-13T11:55:54;6;6;
49454;PMS5003;69710;64.656;21.218;2023-07-13T11:58:24;7;6;
49454;PMS5003;69710;64.656;21.218;2023-07-13T12:00:53;8;8;
49454;PMS5003;69710;64.656;21.218;2023-07-13T12:03:25;8;8;
49454;PMS5003;69710;64.656;21.218;2023-07-13T12:05:57;6;6;
49454;PMS5003;69710;64.656;21.218;2023-07-13T12:08:26;8;8;
49454;PMS5003;69710;64.656;21.218;2023-07-13T12:10:59;7;7;
49454;PMS5003;69710;64.656;21.218;2023-07-13T12:13:34;6;6;
49454;PMS5003;69710;64.656;21.218;2023-07-13T12:16:08;5;5;
49454;PMS5003;69710;64.656;21.218;2023-07-13T12:18:41;5;5;
49454;PMS5003;69710;64.656;21.218;2023-07-13T12:21:10;7;6;
49454;PMS5003;69710;64.656;21.218;2023-07-13T12:23:42;7;5;
49454;PMS5003;69710;64.656;21.218;2023-07-13T12:23:45;8;6;
49454;PMS5003;69710;64.656;21.218;2023-07-13T12:26:15;6;6;
49454;PMS5003;69710;64.656;21.218;2023-07-13T12:28:46;6;6;
49454;PMS5003;69710;64.656;21.218;2023-07-13T12:31:23;6;6;
49454;PMS5003;69710;64.656;21.218;2023-07-13T12:33:57;5;5;
49454;PMS5003;69710;64.656;21.218;2023-07-13T12:36:26;4;3;
49454;PMS5003;69710;64.656;21.218;2023-07-13T12:39:00;6;6;
49454;PMS5003;69710;64.656;21.218;2023-07-13T12:41:31;4;4;
49454;PMS5003;69710;64.656;21.218;2023-07-13T12:44:00;5;4;
49454;PMS5003;69710;64.656;21.218;2023-07-13T12:46:28;5;4;
49454;PMS5003;69710;64.656;21.218;2023-07-13T12:48:56;5;5;
49454;PMS5003;69710;64.656;21.218;2023-07-13T12:51:25;6;6;
49454;PMS5003;69710;64.656;21.218;2023-07-13T12:53:57;7;7;
49454;PMS5003;69710;64.656;21.218;2023-07-13T12:56:32;6;5;
49454;PMS5003;69710;64.656;21.218;2023-07-13T12:59:02;5;5;
49454;PMS5003;69710;64.656;21.218;2023-07-13T13:01:32;3;3;
49454;PMS5003;69710;64.656;21.218;2023-07-13T13:04:02;7;7;
49454;PMS5003;69710;64.656;21.218;2023-07-13T13:06:30;6;6;
49454;PMS5003;69710;64.656;21.218;2023-07-13T13:08:59;4;4;
49454;PMS5003;69710;64.656;21.218;2023-07-13T13:11:26;5;5;
49454;PMS5003;69710;64.656;21.218;2023-07-13T13:13:55;6;6;
49454;PMS5003;69710;64.656;21.218;2023-07-13T13:16:26;5;4;
49454;PMS5003;69710;64.656;21.218;2023-07-13T13:18:59;6;5;
49454;PMS5003;69710;64.656;21.218;2023-07-13T13:21:38;6;5;
49454;PMS5003;69710;64.656;21.218;2023-07-13T13:24:09;5;5;
49454;PMS5003;69710;64.656;21.218;2023-07-13T13:26:38;6;5;
49454;PMS5003;69710;64.656;21.218;2023-07-13T13:29:10;7;7;
49454;PMS5003;69710;64.656;21.218;2023-07-13T13:31:40;4;4;
49454;PMS5003;69710;64.656;21.218;2023-07-13T13:34:09;4;4;
49454;PMS5003;69710;64.656;21.218;2023-07-13T13:36:38;5;5;
49454;PMS5003;69710;64.656;21.218;2023-07-13T13:39:11;7;7;
49454;PMS5003;69710;64.656;21.218;2023-07-13T13:41:46;6;5;
49454;PMS5003;69710;64.656;21.218;2023-07-13T13:44:15;6;6;
49454;PMS5003;69710;64.656;21.218;2023-07-13T13:46:45;9;8;
49454;PMS5003;69710;64.656;21.218;2023-07-13T13:49:16;8;7;
49454;PMS5003;69710;64.656;21.218;2023-07-13T13:51:45;6;6;
49454;PMS5003;69710;64.656;21.218;2023-07-13T13:54:13;6;5;
49454;PMS5003;69710;64.656;21.218;2023-07-13T13:56:43;5;5;
49454;PMS5003;69710;64.656;21.218;2023-07-13T13:59:13;6;6;
49454;PMS5003;69710;64.656;21.218;2023-07-13T14:01:42;6;6;
49454;PMS5003;69710;64.656;21.218;2023-07-13T14:04:12;6;6;
49454;PMS5003;69710;64.656;21.218;2023-07-13T14:06:42;6;6;
49454;PMS5003;69710;64.656;21.218;2023-07-13T14:09:11;4;4;
49454;PMS5003;69710;64.656;21.218;2023-07-13T14:11:42;4;4;
49454;PMS5003;69710;64.656;21.218;2023-07-13T14:14:12;6;5;
49454;PMS5003;69710;64.656;21.218;2023-07-13T14:16:43;4;4;
49454;PMS5003;69710;64.656;21.218;2023-07-13T14:19:12;3;3;
49454;PMS5003;69710;64.656;21.218;2023-07-13T14:21:40;6;6;
49454;PMS5003;69710;64.656;21.218;2023-07-13T14:24:07;7;7;
49454;PMS5003;69710;64.656;21.218;2023-07-13T14:26:36;6;6;
49454;PMS5003;69710;64.656;21.218;2023-07-13T14:29:11;8;7;
49454;PMS5003;69710;64.656;21.218;2023-07-13T14:31:41;7;7;
49454;PMS5003;69710;64.656;21.218;2023-07-13T14:34:10;7;6;
49454;PMS5003;69710;64.656;21.218;2023-07-13T14:36:39;8;6;
49454;PMS5003;69710;64.656;21.218;2023-07-13T14:39:11;7;7;
49454;PMS5003;69710;64.656;21.218;2023-07-13T14:41:41;7;7;
49454;PMS5003;69710;64.656;21.218;2023-07-13T14:44:11;5;5;
49454;PMS5003;69710;64.656;21.218;2023-07-13T14:46:39;5;5;
49454;PMS5003;69710;64.656;21.218;2023-07-13T14:49:11;3;3;
49454;PMS5003;69710;64.656;21.218;2023-07-13T14:51:44;5;5;
49454;PMS5003;69710;64.656;21.218;2023-07-13T14:54:12;6;5;
49454;PMS5003;69710;64.656;21.218;2023-07-13T14:56:40;7;7;
49454;PMS5003;69710;64.656;21.218;2023-07-13T14:59:08;9;8;
49454;PMS5003;69710;64.656;21.218;2023-07-13T15:01:36;5;5;
49454;PMS5003;69710;64.656;21.218;2023-07-13T15:04:05;5;5;
49454;PMS5003;69710;64.656;21.218;2023-07-13T15:06:39;6;6;
49454;PMS5003;69710;64.656;21.218;2023-07-13T15:09:21;8;7;
49454;PMS5003;69710;64.656;21.218;2023-07-13T15:11:50;8;7;
49454;PMS5003;69710;64.656;21.218;2023-07-13T15:14:17;7;6;
49454;PMS5003;69710;64.656;21.218;2023-07-13T15:16:45;8;8;
49454;PMS5003;69710;64.656;21.218;2023-07-13T15:19:16;5;5;
49454;PMS5003;69710;64.656;21.218;2023-07-13T15:21:45;5;5;
49454;PMS5003;69710;64.656;21.218;2023-07-13T15:24:14;7;7;
49454;PMS5003;69710;64.656;21.218;2023-07-13T15:26:42;4;4;
49454;PMS5003;69710;64.656;21.218;2023-07-13T15:29:11;4;3;
49454;PMS5003;69710;64.656;21.218;2023-07-13T15:31:39;4;4;
49454;PMS5003;69710;64.656;21.218;2023-07-13T15:34:10;6;4;
49454;PMS5003;69710;64.656;21.218;2023-07-13T15:36:40;3;3;
49454;PMS5003;69710;64.656;21.218;2023-07-13T15:39:10;5;5;
49454;PMS5003;69710;64.656;21.218;2023-07-13T15:41:41;2;1;
49454;PMS5003;69710;64.656;21.218;2023-07-13T15:44:20;3;3;
49454;PMS5003;69710;64.656;21.218;2023-07-13T15:46:50;3;3;
49454;PMS5003;69710;64.656;21.218;2023-07-13T15:49:19;1;1;
49454;PMS5003;69710;64.656;21.218;2023-07-13T15:51:47;3;2;
49454;PMS5003;69710;64.656;21.218;2023-07-13T15:54:16;4;4;
49454;PMS5003;69710;64.656;21.218;2023-07-13T15:56:47;5;3;
49454;PMS5003;69710;64.656;21.218;2023-07-13T15:59:19;2;2;
49454;PMS5003;69710;64.656;21.218;2023-07-13T16:01:47;2;1;
49454;PMS5003;69710;64.656;21.218;2023-07-13T16:04:15;1;1;
49454;PMS5003;69710;64.656;21.218;2023-07-13T16:06:43;1;1;
49454;PMS5003;69710;64.656;21.218;2023-07-13T16:09:13;1;1;
49454;PMS5003;69710;64.656;21.218;2023-07-13T16:11:46;2;2;
49454;PMS5003;69710;64.656;21.218;2023-07-13T16:14:15;1;1;
49454;PMS5003;69710;64.656;21.218;2023-07-13T16:16:43;0;0;
49454;PMS5003;69710;64.656;21.218;2023-07-13T16:19:11;0;0;
49454;PMS5003;69710;64.656;21.218;2023-07-13T16:21:40;1;1;
49454;PMS5003;69710;64.656;21.218;2023-07-13T16:24:14;0;0;